createdAt,value
2023-01-28T07:20:55.008Z,2.82
2023-01-28T07:21:56.900Z,2.84
2023-01-28T07:22:58.831Z,2.84
2023-01-28T07:24:00.682Z,2.83
2023-01-28T07:25:02.590Z,2.79
2023-01-28T07:26:04.498Z,2.76
2023-01-28T07:27:06.312Z,2.79
2023-01-28T07:28:08.279Z,2.81
2023-01-28T07:29:10.371Z,2.81
2023-01-28T07:30:12.781Z,2.82
2023-01-28T07:31:14.908Z,2.85
2023-01-28T07:32:16.905Z,2.86
2023-01-28T07:33:20.568Z,2.87
2023-01-28T07:34:22.890Z,2.91
2023-01-28T07:35:24.708Z,2.94
2023-01-28T07:36:26.607Z,2.99
2023-01-28T07:37:28.502Z,3.01
2023-01-28T07:38:30.347Z,3.04
2023-01-28T07:39:32.160Z,3.01
2023-01-28T07:40:34.083Z,2.99
2023-01-28T07:41:35.873Z,2.95
2023-01-28T07:42:37.701Z,2.95
2023-01-28T07:43:39.556Z,2.96
2023-01-28T07:44:41.363Z,2.97
2023-01-28T07:45:43.177Z,2.98
2023-01-28T07:46:45.089Z,2.97
2023-01-28T07:47:46.896Z,2.96
2023-01-28T07:48:48.749Z,2.98
2023-01-28T07:49:50.560Z,2.98
2023-01-28T07:50:52.355Z,2.98
2023-01-28T07:51:54.179Z,2.98
2023-01-28T07:52:55.971Z,3.03
2023-01-28T07:53:57.845Z,3.05
2023-01-28T07:54:59.772Z,3.08
2023-01-28T07:56:01.594Z,3.12
2023-01-28T07:57:03.400Z,3.14
2023-01-28T07:58:05.284Z,3.16
2023-01-28T07:59:07.133Z,3.21
2023-01-28T08:00:09.663Z,3.22
2023-01-28T08:01:11.470Z,3.24
2023-01-28T08:02:13.272Z,3.25
2023-01-28T08:03:15.066Z,3.23
2023-01-28T08:04:17.014Z,3.25
2023-01-28T08:05:19.002Z,3.24
2023-01-28T08:06:21.251Z,3.21
2023-01-28T08:07:23.045Z,3.19
2023-01-28T08:08:24.850Z,3.18
2023-01-28T08:09:28.874Z,3.21
2023-01-28T08:10:31.692Z,3.22
2023-01-28T08:11:33.567Z,3.22
2023-01-28T08:12:35.392Z,3.25
2023-01-28T08:13:38.618Z,3.30
2023-01-28T08:14:40.516Z,3.34
2023-01-28T08:15:42.393Z,3.39
2023-01-28T08:16:44.177Z,3.41
2023-01-28T08:17:45.964Z,3.41
2023-01-28T08:18:47.753Z,3.43
2023-01-28T08:19:51.101Z,3.49
2023-01-28T08:20:52.953Z,3.50
2023-01-28T08:21:54.748Z,3.50
2023-01-28T08:22:56.543Z,3.52
2023-01-28T08:23:58.383Z,3.49
2023-01-28T08:25:00.284Z,3.44
2023-01-28T08:26:02.090Z,3.37
2023-01-28T08:27:04.191Z,3.35
2023-01-28T08:28:05.974Z,3.37
2023-01-28T08:29:07.764Z,3.43
2023-01-28T08:30:10.171Z,3.49
2023-01-28T08:31:12.184Z,3.55
2023-01-28T08:32:14.034Z,3.57
2023-01-28T08:33:15.814Z,3.55
2023-01-28T08:34:17.689Z,3.58
2023-01-28T08:35:19.555Z,3.61
2023-01-28T08:36:21.335Z,3.59
2023-01-28T08:37:23.107Z,3.60
2023-01-28T08:38:24.917Z,3.62
2023-01-28T08:39:26.836Z,3.62
2023-01-28T08:40:28.778Z,3.60
2023-01-28T08:41:30.583Z,3.58
2023-01-28T08:42:32.367Z,3.57
2023-01-28T08:43:34.148Z,3.60
2023-01-28T08:44:36.958Z,3.60
2023-01-28T08:45:38.849Z,3.62
2023-01-28T08:46:40.967Z,3.65
2023-01-28T08:47:42.743Z,3.65
2023-01-28T08:48:44.533Z,3.67
2023-01-28T08:49:46.328Z,3.69
2023-01-28T08:50:48.266Z,3.68
2023-01-28T08:51:50.056Z,3.75
2023-01-28T08:52:51.848Z,3.80
2023-01-28T08:53:53.656Z,3.82
2023-01-28T08:54:55.463Z,3.86
2023-01-28T08:55:57.323Z,3.90
2023-01-28T08:56:59.113Z,3.96
2023-01-28T08:58:01.091Z,4.01
2023-01-28T08:59:02.850Z,4.07
2023-01-28T09:00:04.741Z,4.10
2023-01-28T09:01:06.580Z,4.09
2023-01-28T09:02:19.113Z,4.08
2023-01-28T09:03:12.043Z,4.05
2023-01-28T09:04:13.823Z,4.06
2023-01-28T09:05:15.650Z,4.08
2023-01-28T09:06:17.789Z,4.08
2023-01-28T09:07:19.571Z,4.13
2023-01-28T09:08:22.396Z,4.14
2023-01-28T09:09:24.993Z,4.15
2023-01-28T09:10:26.772Z,4.16
2023-01-28T09:11:28.620Z,4.15
2023-01-28T09:12:30.401Z,4.14
2023-01-28T09:13:32.168Z,4.14
2023-01-28T09:14:33.933Z,4.13
2023-01-28T09:15:35.723Z,4.15
2023-01-28T09:16:37.552Z,4.17
2023-01-28T09:17:39.373Z,4.17
2023-01-28T09:18:41.149Z,4.18
2023-01-28T09:19:42.929Z,4.19
2023-01-28T09:20:44.810Z,4.23
2023-01-28T09:21:46.659Z,4.27
2023-01-28T09:22:48.450Z,4.25
2023-01-28T09:23:50.244Z,4.26
2023-01-28T09:24:52.044Z,4.27
2023-01-28T09:25:53.831Z,4.30
2023-01-28T09:26:55.776Z,4.34
2023-01-28T09:27:57.554Z,4.37
2023-01-28T09:28:59.331Z,4.39
2023-01-28T09:30:01.190Z,4.42
2023-01-28T09:31:03.025Z,4.47
2023-01-28T09:32:04.825Z,4.49
2023-01-28T09:33:06.660Z,4.52
2023-01-28T09:34:08.447Z,4.49
2023-01-28T09:35:10.242Z,4.48
2023-01-28T09:36:12.034Z,4.47
2023-01-28T09:37:13.837Z,4.45
2023-01-28T09:38:15.606Z,4.46
2023-01-28T09:39:17.393Z,4.47
2023-01-28T09:40:19.290Z,4.46
2023-01-28T09:41:21.068Z,4.46
2023-01-28T09:42:22.910Z,4.43
2023-01-28T09:43:24.692Z,4.43
2023-01-28T09:44:26.479Z,4.43
2023-01-28T09:45:28.249Z,4.46
2023-01-28T09:46:30.037Z,4.49
2023-01-28T09:47:31.864Z,4.51
2023-01-28T09:48:33.746Z,4.54
2023-01-28T09:49:35.493Z,4.57
2023-01-28T09:50:37.272Z,4.61
2023-01-28T09:51:39.057Z,4.65
2023-01-28T09:52:40.890Z,4.65
2023-01-28T09:53:42.678Z,4.70
2023-01-28T09:54:44.486Z,4.73
2023-01-28T09:55:48.595Z,4.78
2023-01-28T09:56:50.466Z,4.80
2023-01-28T09:57:53.410Z,4.79
2023-01-28T09:58:56.450Z,4.78
2023-01-28T10:00:00.141Z,4.77
2023-01-28T10:01:02.045Z,4.77
2023-01-28T10:02:05.006Z,4.77
2023-01-28T10:03:08.512Z,4.77
2023-01-28T10:04:10.716Z,4.79
2023-01-28T10:05:14.424Z,4.84
2023-01-28T10:06:20.825Z,4.86
2023-01-28T10:07:22.719Z,4.86
2023-01-28T10:08:24.619Z,4.88
2023-01-28T10:09:26.498Z,4.87
2023-01-28T10:10:28.747Z,4.87
2023-01-28T10:11:31.086Z,4.86
2023-01-28T10:12:34.346Z,4.89
2023-01-28T10:13:38.464Z,4.89
2023-01-28T10:14:40.302Z,4.89
2023-01-28T10:15:43.421Z,4.90
2023-01-28T10:16:45.774Z,4.89
2023-01-28T10:17:47.572Z,4.90
2023-01-28T10:18:49.768Z,4.93
2023-01-28T10:19:51.592Z,4.95
2023-01-28T10:20:53.396Z,4.93
2023-01-28T10:21:55.222Z,4.90
2023-01-28T10:22:57.057Z,4.90
2023-01-28T10:23:58.992Z,4.91
2023-01-28T10:25:02.144Z,4.88
2023-01-28T10:26:05.786Z,4.84
2023-01-28T10:27:08.066Z,4.83
2023-01-28T10:28:09.915Z,4.84
2023-01-28T10:29:11.796Z,4.86
2023-01-28T10:30:14.423Z,4.89
2023-01-28T10:31:17.610Z,4.92
2023-01-28T10:32:19.498Z,4.96
2023-01-28T10:33:21.322Z,4.99
2023-01-28T10:34:23.193Z,5.04
2023-01-28T10:35:25.047Z,5.08
2023-01-28T10:36:26.951Z,5.11
2023-01-28T10:37:36.532Z,5.12
2023-01-28T10:38:38.830Z,5.10
2023-01-28T10:39:41.188Z,5.11
2023-01-28T10:40:45.789Z,5.13
2023-01-28T10:41:57.441Z,5.16
2023-01-28T10:42:51.314Z,5.18
2023-01-28T10:43:53.144Z,5.19
2023-01-28T10:44:55.061Z,5.21
2023-01-28T10:45:57.945Z,5.23
2023-01-28T10:46:59.938Z,5.23
2023-01-28T10:48:03.009Z,5.23
2023-01-28T10:49:05.521Z,5.22
2023-01-28T10:50:10.312Z,5.24
2023-01-28T10:51:12.217Z,5.20
2023-01-28T10:52:15.257Z,5.15
2023-01-28T10:53:17.118Z,5.15
2023-01-28T10:54:19.317Z,5.12
2023-01-28T10:55:22.340Z,5.10
2023-01-28T10:56:24.624Z,5.08
2023-01-28T10:57:27.658Z,5.06
2023-01-28T10:58:30.569Z,5.04
2023-01-28T10:59:34.983Z,5.02
2023-01-28T11:00:37.524Z,5.04
2023-01-28T11:01:39.382Z,5.09
2023-01-28T11:02:41.790Z,5.13
2023-01-28T11:03:43.667Z,5.16
2023-01-28T11:04:47.315Z,5.19
2023-01-28T11:05:49.198Z,5.19
2023-01-28T11:06:51.141Z,5.20
2023-01-28T11:07:52.997Z,5.19
2023-01-28T11:08:54.836Z,5.18
2023-01-28T11:09:56.723Z,5.21
2023-01-28T11:10:58.930Z,5.20
2023-01-28T11:12:01.101Z,5.23
2023-01-28T11:13:02.945Z,5.22
2023-01-28T11:14:06.575Z,5.21
2023-01-28T11:15:08.407Z,5.22
2023-01-28T11:16:10.393Z,5.20
2023-01-28T11:17:14.038Z,5.20
2023-01-28T11:18:16.996Z,5.18
2023-01-28T11:19:19.491Z,5.20
2023-01-28T11:20:25.689Z,5.19
2023-01-28T11:21:27.565Z,5.20
2023-01-28T11:22:29.994Z,5.19
2023-01-28T11:23:31.796Z,5.22
2023-01-28T11:24:33.645Z,5.29
2023-01-28T11:25:35.392Z,5.33
2023-01-28T11:26:37.468Z,5.31
2023-01-28T11:27:39.245Z,5.29
2023-01-28T11:28:41.021Z,5.28
2023-01-28T11:29:42.819Z,5.28
2023-01-28T11:30:44.832Z,5.25
2023-01-28T11:31:46.711Z,5.24
2023-01-28T11:32:48.573Z,5.26
2023-01-28T11:33:50.422Z,5.26
2023-01-28T11:34:52.187Z,5.24
2023-01-28T11:35:54.552Z,5.21
2023-01-28T11:36:56.408Z,5.20
2023-01-28T11:37:58.234Z,5.22
2023-01-28T11:39:00.025Z,5.23
2023-01-28T11:40:01.819Z,5.24
2023-01-28T11:41:03.673Z,5.25
2023-01-28T11:42:05.505Z,5.23
2023-01-28T11:43:08.301Z,5.24
2023-01-28T11:44:10.297Z,5.26
2023-01-28T11:45:12.368Z,5.29
2023-01-28T11:46:14.256Z,5.29
2023-01-28T11:47:16.107Z,5.31
2023-01-28T11:48:18.225Z,5.41
2023-01-28T11:49:20.015Z,5.41
2023-01-28T11:50:21.810Z,5.41
2023-01-28T11:51:23.604Z,5.39
2023-01-28T11:52:25.505Z,5.38
2023-01-28T11:53:27.314Z,5.37
2023-01-28T11:54:29.508Z,5.36
2023-01-28T11:55:31.322Z,5.36
2023-01-28T11:56:33.416Z,5.37
2023-01-28T11:57:35.281Z,5.33
2023-01-28T11:58:37.107Z,5.31
2023-01-28T11:59:39.336Z,5.30
2023-01-28T12:00:41.662Z,5.28
2023-01-28T12:01:43.478Z,5.27
2023-01-28T12:02:45.394Z,5.27
2023-01-28T12:03:47.270Z,5.27
2023-01-28T12:04:49.088Z,5.25
2023-01-28T12:05:50.849Z,5.21
2023-01-28T12:06:52.664Z,5.21
2023-01-28T12:07:54.583Z,5.19
2023-01-28T12:08:56.392Z,5.20
2023-01-28T12:09:58.261Z,5.20
2023-01-28T12:11:00.614Z,5.22
2023-01-28T12:12:04.783Z,5.25
2023-01-28T12:13:06.047Z,5.28
2023-01-28T12:14:07.852Z,5.29
2023-01-28T12:15:09.679Z,5.27
2023-01-28T12:16:12.024Z,5.26
2023-01-28T12:17:14.394Z,5.32
2023-01-28T12:18:16.262Z,5.32
2023-01-28T12:19:18.073Z,5.30
2023-01-28T12:20:19.949Z,5.29
2023-01-28T12:21:21.790Z,5.29
2023-01-28T12:22:23.566Z,5.31
2023-01-28T12:23:25.430Z,5.31
2023-01-28T12:24:27.302Z,5.28
2023-01-28T12:25:29.072Z,5.27
2023-01-28T12:26:30.890Z,5.26
2023-01-28T12:27:32.708Z,5.25
2023-01-28T12:28:34.539Z,5.24
2023-01-28T12:29:36.333Z,5.20
2023-01-28T12:30:38.449Z,5.15
2023-01-28T12:31:40.290Z,5.13
2023-01-28T12:32:42.075Z,5.09
2023-01-28T12:33:43.904Z,5.05
2023-01-28T12:34:45.735Z,4.99
2023-01-28T12:35:47.547Z,4.99
2023-01-28T12:36:49.335Z,5.03
2023-01-28T12:37:51.323Z,5.07
2023-01-28T12:38:53.745Z,5.08
2023-01-28T12:39:55.591Z,5.11
2023-01-28T12:40:57.400Z,5.11
2023-01-28T12:41:59.205Z,5.12
2023-01-28T12:43:01.013Z,5.14
2023-01-28T12:44:02.851Z,5.14
2023-01-28T12:45:04.670Z,5.20
2023-01-28T12:46:06.899Z,5.20
2023-01-28T12:47:08.781Z,5.19
2023-01-28T12:48:10.591Z,5.15
2023-01-28T12:49:13.041Z,5.13
2023-01-28T12:50:15.246Z,5.08
2023-01-28T12:51:17.257Z,5.04
2023-01-28T12:52:19.069Z,5.00
2023-01-28T12:53:20.858Z,4.93
2023-01-28T12:54:22.692Z,4.92
2023-01-28T12:55:24.525Z,4.91
2023-01-28T12:56:26.339Z,4.92
2023-01-28T12:57:28.427Z,4.91
2023-01-28T12:58:30.207Z,4.91
2023-01-28T12:59:32.045Z,4.93
2023-01-28T13:00:33.835Z,4.95
2023-01-28T13:01:35.630Z,5.00
2023-01-28T13:02:37.422Z,4.99
2023-01-28T13:03:39.243Z,5.00
2023-01-28T13:04:41.065Z,5.01
2023-01-28T13:05:42.863Z,5.03
2023-01-28T13:06:44.866Z,5.07
2023-01-28T13:07:46.652Z,5.08
2023-01-28T13:08:48.440Z,5.08
2023-01-28T13:09:50.298Z,5.11
2023-01-28T13:10:52.347Z,5.11
2023-01-28T13:11:54.149Z,5.13
2023-01-28T13:12:55.945Z,5.15
2023-01-28T13:13:58.332Z,5.17
2023-01-28T13:15:00.200Z,5.21
2023-01-28T13:16:01.998Z,5.27
2023-01-28T13:17:03.816Z,5.30
2023-01-28T13:18:05.657Z,5.36
2023-01-28T13:19:07.437Z,5.40
2023-01-28T13:20:10.932Z,5.45
2023-01-28T13:21:12.843Z,5.50
2023-01-28T13:22:14.631Z,5.53
2023-01-28T13:23:16.403Z,5.55
2023-01-28T13:24:18.201Z,5.56
2023-01-28T13:25:20.024Z,5.58
2023-01-28T13:26:24.600Z,5.59
2023-01-28T13:27:25.456Z,5.62
2023-01-28T13:28:27.244Z,5.61
2023-01-28T13:29:29.071Z,5.59
2023-01-28T13:30:31.006Z,5.57
2023-01-28T13:31:32.795Z,5.60
2023-01-28T13:32:34.652Z,5.62
2023-01-28T13:33:36.451Z,5.68
2023-01-28T13:34:38.374Z,5.69
2023-01-28T13:35:40.210Z,5.72
2023-01-28T13:36:42.089Z,5.71
2023-01-28T13:37:44.197Z,5.71
2023-01-28T13:38:46.176Z,5.70
2023-01-28T13:39:48.024Z,5.69
2023-01-28T13:40:51.047Z,5.66
2023-01-28T13:41:52.973Z,5.65
2023-01-28T13:42:57.074Z,5.64
2023-01-28T13:43:58.403Z,5.66
2023-01-28T13:45:00.272Z,5.66
2023-01-28T13:46:02.327Z,5.67
2023-01-28T13:47:04.714Z,5.66
2023-01-28T13:48:06.579Z,5.67
2023-01-28T13:49:08.385Z,5.70
2023-01-28T13:50:10.330Z,5.68
2023-01-28T13:51:12.470Z,5.63
2023-01-28T13:52:14.340Z,5.63
2023-01-28T13:53:16.148Z,5.61
2023-01-28T13:54:17.975Z,5.58
2023-01-28T13:55:33.487Z,5.61
2023-01-28T13:56:23.630Z,5.63
2023-01-28T13:57:25.522Z,5.65
2023-01-28T13:58:27.358Z,5.68
2023-01-28T13:59:29.365Z,5.70
2023-01-28T14:00:31.659Z,5.73
2023-01-28T14:01:33.516Z,5.76
2023-01-28T14:02:35.406Z,5.78
2023-01-28T14:03:37.191Z,5.80
2023-01-28T14:04:39.033Z,5.80
2023-01-28T14:05:40.815Z,5.80
2023-01-28T14:06:43.053Z,5.81
2023-01-28T14:07:45.097Z,5.83
2023-01-28T14:08:47.988Z,5.84
2023-01-28T14:09:49.830Z,5.90
2023-01-28T14:10:51.596Z,5.90
2023-01-28T14:11:53.442Z,5.89
2023-01-28T14:12:55.324Z,5.85
2023-01-28T14:13:57.127Z,5.81
2023-01-28T14:14:58.924Z,5.80
2023-01-28T14:16:00.843Z,5.76
2023-01-28T14:17:02.862Z,5.71
2023-01-28T14:18:04.689Z,5.67
2023-01-28T14:19:07.607Z,5.64
2023-01-28T14:20:09.697Z,5.62
2023-01-28T14:21:11.495Z,5.62
2023-01-28T14:22:13.371Z,5.63
2023-01-28T14:23:15.184Z,5.66
2023-01-28T14:24:17.029Z,5.64
2023-01-28T14:25:18.947Z,5.66
2023-01-28T14:26:20.762Z,5.67
2023-01-28T14:27:22.622Z,5.68
2023-01-28T14:28:24.675Z,5.72
2023-01-28T14:29:26.482Z,5.74
2023-01-28T14:30:28.516Z,5.75
2023-01-28T14:31:30.434Z,5.74
2023-01-28T14:32:33.131Z,5.71
2023-01-28T14:33:34.923Z,5.68
2023-01-28T14:34:36.751Z,5.68
2023-01-28T14:35:39.169Z,5.68
2023-01-28T14:36:41.406Z,5.70
2023-01-28T14:37:43.241Z,5.69
2023-01-28T14:38:45.037Z,5.67
2023-01-28T14:39:46.923Z,5.65
2023-01-28T14:40:48.902Z,5.64
2023-01-28T14:41:50.763Z,5.65
2023-01-28T14:42:52.656Z,5.66
2023-01-28T14:43:54.527Z,5.68
2023-01-28T14:44:56.360Z,5.66
2023-01-28T14:45:58.165Z,5.66
2023-01-28T14:46:59.985Z,5.62
2023-01-28T14:48:01.831Z,5.57
2023-01-28T14:49:03.656Z,5.54
2023-01-28T14:50:05.666Z,5.52
2023-01-28T14:51:07.600Z,5.54
2023-01-28T14:52:09.503Z,5.55
2023-01-28T14:53:13.109Z,5.56
2023-01-28T14:54:15.098Z,5.61
2023-01-28T14:55:17.149Z,5.62
2023-01-28T14:56:19.820Z,5.62
2023-01-28T14:57:22.637Z,5.62
2023-01-28T14:58:25.913Z,5.58
2023-01-28T14:59:29.502Z,5.56
2023-01-28T15:00:31.590Z,5.56
2023-01-28T15:01:33.453Z,5.56
2023-01-28T15:02:35.585Z,5.55
2023-01-28T15:03:37.703Z,5.50
2023-01-28T15:04:39.689Z,5.44
2023-01-28T15:05:41.617Z,5.42
2023-01-28T15:06:43.770Z,5.38
2023-01-28T15:07:45.720Z,5.39
2023-01-28T15:08:47.670Z,5.40
2023-01-28T15:09:49.483Z,5.39
2023-01-28T15:10:51.394Z,5.38
2023-01-28T15:11:53.276Z,5.38
2023-01-28T15:12:55.129Z,5.38
2023-01-28T15:13:57.030Z,5.36
2023-01-28T15:14:59.144Z,5.33
2023-01-28T15:16:01.052Z,5.33
2023-01-28T15:17:03.224Z,5.31
2023-01-28T15:18:05.107Z,5.28
2023-01-28T15:19:07.240Z,5.28
2023-01-28T15:20:09.341Z,5.25
2023-01-28T15:21:11.141Z,5.24
2023-01-28T15:22:12.954Z,5.21
2023-01-28T15:24:18.681Z,5.17
2023-01-28T15:25:20.441Z,5.18
2023-01-28T15:26:22.393Z,5.15
2023-01-28T15:27:25.030Z,5.17
2023-01-28T15:28:26.978Z,5.19
2023-01-28T15:29:28.984Z,5.21
2023-01-28T15:30:31.106Z,5.23
2023-01-28T15:31:33.283Z,5.26
2023-01-28T15:32:35.177Z,5.23
2023-01-28T15:33:36.980Z,5.22
2023-01-28T15:34:38.844Z,5.22
2023-01-28T15:35:40.638Z,5.22
2023-01-28T15:36:42.547Z,5.22
2023-01-28T15:37:44.384Z,5.21
2023-01-28T15:38:47.471Z,5.22
2023-01-28T15:39:49.307Z,5.25
2023-01-28T15:40:51.217Z,5.28
2023-01-28T15:41:53.015Z,5.30
2023-01-28T15:42:54.826Z,5.33
2023-01-28T15:43:56.615Z,5.37
2023-01-28T15:44:58.874Z,5.40
2023-01-28T15:46:00.762Z,5.43
2023-01-28T15:47:03.704Z,5.46
2023-01-28T15:48:05.543Z,5.48
2023-01-28T15:49:07.357Z,5.49
2023-01-28T15:50:09.512Z,5.48
2023-01-28T15:51:11.329Z,5.48
2023-01-28T15:52:13.140Z,5.48
2023-01-28T15:53:14.944Z,5.49
2023-01-28T15:54:16.758Z,5.49
2023-01-28T15:55:19.636Z,5.49
2023-01-28T15:56:21.628Z,5.50
2023-01-28T15:57:23.439Z,5.48
2023-01-28T15:58:25.241Z,5.45
2023-01-28T15:59:27.070Z,5.45
2023-01-28T16:00:31.196Z,5.48
2023-01-28T16:01:32.702Z,5.49
2023-01-28T16:02:34.509Z,5.50
2023-01-28T16:03:36.403Z,5.50
2023-01-28T16:04:38.237Z,5.52
2023-01-28T16:05:40.087Z,5.54
2023-01-28T16:06:42.463Z,5.54
2023-01-28T16:07:44.887Z,5.55
2023-01-28T16:08:47.808Z,5.54
2023-01-28T16:09:49.637Z,5.53
2023-01-28T16:10:51.600Z,5.53
2023-01-28T16:11:53.421Z,5.57
2023-01-28T16:12:55.747Z,5.57
2023-01-28T16:13:57.583Z,5.56
2023-01-28T16:14:59.421Z,5.58
2023-01-28T16:16:01.355Z,5.60
2023-01-28T16:17:04.000Z,5.58
2023-01-28T16:18:05.861Z,5.57
2023-01-28T16:19:08.296Z,5.56
2023-01-28T16:20:10.135Z,5.58
2023-01-28T16:21:12.012Z,5.59
2023-01-28T16:22:14.413Z,5.58
2023-01-28T16:23:16.239Z,5.57
2023-01-28T16:24:18.631Z,5.57
2023-01-28T16:25:20.408Z,5.55
2023-01-28T16:26:22.260Z,5.57
2023-01-28T16:27:24.070Z,5.52
2023-01-28T16:28:25.882Z,5.55
2023-01-28T16:29:29.912Z,5.55
2023-01-28T16:30:31.304Z,5.53
2023-01-28T16:31:33.284Z,5.52
2023-01-28T16:32:35.178Z,5.52
2023-01-28T16:33:37.587Z,5.53
2023-01-28T16:34:39.397Z,5.53
2023-01-28T16:36:03.493Z,5.55
2023-01-28T16:36:45.023Z,5.53
2023-01-28T16:37:46.848Z,5.55
2023-01-28T16:38:48.641Z,5.58
2023-01-28T16:39:50.428Z,5.60
2023-01-28T16:40:52.363Z,5.59
2023-01-28T16:41:55.363Z,5.58
2023-01-28T16:42:57.185Z,5.58
2023-01-28T16:43:59.011Z,5.59
2023-01-28T16:45:00.822Z,5.57
2023-01-28T16:46:02.709Z,5.56
2023-01-28T16:47:04.627Z,5.58
2023-01-28T16:48:06.519Z,5.59
2023-01-28T16:49:08.343Z,5.58
2023-01-28T16:50:11.055Z,5.54
2023-01-28T16:51:12.871Z,5.51
2023-01-28T16:52:15.059Z,5.47
2023-01-28T16:53:16.887Z,5.49
2023-01-28T16:54:18.691Z,5.49
2023-01-28T16:55:20.852Z,5.48
2023-01-28T16:56:43.949Z,5.46
2023-01-28T16:57:26.760Z,5.43
2023-01-28T16:58:28.560Z,5.36
2023-01-28T16:59:30.367Z,5.31
2023-01-28T17:00:32.553Z,5.25
2023-01-28T17:01:34.292Z,5.22
2023-01-28T17:02:36.154Z,5.20
2023-01-28T17:03:37.999Z,5.18
2023-01-28T17:04:40.024Z,5.12
2023-01-28T17:05:41.881Z,5.09
2023-01-28T17:06:43.743Z,5.09
2023-01-28T17:07:45.645Z,5.08
2023-01-28T17:08:47.436Z,5.04
2023-01-28T17:09:49.278Z,5.01
2023-01-28T17:10:51.095Z,5.01
2023-01-28T17:11:53.360Z,5.02
2023-01-28T17:12:55.240Z,5.02
2023-01-28T17:13:57.053Z,5.02
2023-01-28T17:14:58.950Z,5.02
2023-01-28T17:16:00.806Z,5.01
2023-01-28T17:17:02.574Z,5.00
2023-01-28T17:18:04.418Z,4.99
2023-01-28T17:19:06.265Z,5.00
2023-01-28T17:20:08.662Z,5.04
2023-01-28T17:21:10.504Z,5.06
2023-01-28T17:22:12.279Z,5.09
2023-01-28T17:23:14.226Z,5.09
2023-01-28T17:24:16.119Z,5.10
2023-01-28T17:25:18.272Z,5.09
2023-01-28T17:26:20.169Z,5.08
2023-01-28T17:27:21.949Z,5.08
2023-01-28T17:28:23.804Z,5.11
2023-01-28T17:29:25.624Z,5.14
2023-01-28T17:30:27.418Z,5.20
2023-01-28T17:31:29.284Z,5.23
2023-01-28T17:32:31.139Z,5.23
2023-01-28T17:33:33.007Z,5.21
2023-01-28T17:34:34.927Z,5.23
2023-01-28T17:35:36.728Z,5.27
2023-01-28T17:36:38.650Z,5.30
2023-01-28T17:37:40.456Z,5.31
2023-01-28T17:38:42.311Z,5.31
2023-01-28T17:39:44.106Z,5.31
2023-01-28T17:40:46.015Z,5.33
2023-01-28T17:41:47.817Z,5.37
2023-01-28T17:42:49.650Z,5.40
2023-01-28T17:43:51.527Z,5.41
2023-01-28T17:44:53.308Z,5.42
2023-01-28T17:45:55.160Z,5.43
2023-01-28T17:46:56.982Z,5.44
2023-01-28T17:47:58.785Z,5.43
2023-01-28T17:49:00.733Z,5.41
2023-01-28T17:50:03.375Z,5.42
2023-01-28T17:51:05.193Z,5.39
2023-01-28T17:52:07.071Z,5.38
2023-01-28T17:53:08.897Z,5.37
2023-01-28T17:54:10.732Z,5.39
2023-01-28T17:55:12.556Z,5.40
2023-01-28T17:56:15.075Z,5.42
2023-01-28T17:57:16.948Z,5.44
2023-01-28T17:58:18.736Z,5.43
2023-01-28T17:59:20.581Z,5.42
2023-01-28T18:00:22.422Z,5.44
2023-01-28T18:01:24.283Z,5.43
2023-01-28T18:02:26.151Z,5.42
2023-01-28T18:03:27.959Z,5.41
2023-01-28T18:04:29.882Z,5.42
2023-01-28T18:05:31.700Z,5.46
2023-01-28T18:06:33.816Z,5.51
2023-01-28T18:07:35.616Z,5.55
2023-01-28T18:08:37.424Z,5.58
2023-01-28T18:09:39.305Z,5.58
2023-01-28T18:10:41.128Z,5.57
2023-01-28T18:11:42.957Z,5.58
2023-01-28T18:12:44.843Z,5.59
2023-01-28T18:13:46.586Z,5.57
2023-01-28T18:14:48.459Z,5.52
2023-01-28T18:15:50.289Z,5.50
2023-01-28T18:16:52.175Z,5.47
2023-01-28T18:17:53.981Z,5.46
2023-01-28T18:18:55.815Z,5.45
2023-01-28T18:19:57.654Z,5.43
2023-01-28T18:20:59.843Z,5.42
2023-01-28T18:22:01.651Z,5.38
2023-01-28T18:23:03.439Z,5.36
2023-01-28T18:24:05.282Z,5.38
2023-01-28T18:25:07.079Z,5.36
2023-01-28T18:26:08.893Z,5.35
2023-01-28T18:27:10.694Z,5.34
2023-01-28T18:28:12.496Z,5.35
2023-01-28T18:29:14.298Z,5.34
2023-01-28T18:30:16.201Z,5.32
2023-01-28T18:31:18.064Z,5.32
2023-01-28T18:32:19.892Z,5.35
2023-01-28T18:33:21.694Z,5.31
2023-01-28T18:34:23.509Z,5.31
2023-01-28T18:35:25.360Z,5.32
2023-01-28T18:36:27.301Z,5.34
2023-01-28T18:37:29.124Z,5.35
2023-01-28T18:38:30.933Z,5.38
2023-01-28T18:39:32.770Z,5.38
2023-01-28T18:40:34.638Z,5.39
2023-01-28T18:41:36.467Z,5.38
2023-01-28T18:42:38.262Z,5.36
2023-01-28T18:43:40.082Z,5.35
2023-01-28T18:44:41.917Z,5.35
2023-01-28T18:45:43.782Z,5.33
2023-01-28T18:46:45.603Z,5.30
2023-01-28T18:47:47.380Z,5.29
2023-01-28T18:48:49.189Z,5.25
2023-01-28T18:49:51.115Z,5.26
2023-01-28T18:50:53.074Z,5.24
2023-01-28T18:51:54.985Z,5.22
2023-01-28T18:52:57.176Z,5.21
2023-01-28T18:53:59.025Z,5.19
2023-01-28T18:55:00.846Z,5.20
2023-01-28T18:56:02.711Z,5.20
2023-01-28T18:57:04.547Z,5.21
2023-01-28T18:58:06.352Z,5.24
2023-01-28T18:59:08.171Z,5.23
2023-01-28T19:00:10.295Z,5.21
2023-01-28T19:01:12.203Z,5.19
2023-01-28T19:02:14.063Z,5.15
2023-01-28T19:03:15.830Z,5.12
2023-01-28T19:04:17.667Z,5.08
2023-01-28T19:05:19.491Z,5.06
2023-01-28T19:06:21.483Z,5.04
2023-01-28T19:07:23.405Z,5.03
2023-01-28T19:08:25.227Z,4.98
2023-01-28T19:09:27.048Z,5.00
2023-01-28T19:10:28.882Z,4.96
2023-01-28T19:11:30.803Z,4.95
2023-01-28T19:12:32.573Z,4.93
2023-01-28T19:13:34.387Z,4.92
2023-01-28T19:14:36.194Z,4.89
2023-01-28T19:15:37.992Z,4.89
2023-01-28T19:16:39.899Z,4.89
2023-01-28T19:17:41.653Z,4.89
2023-01-28T19:18:43.512Z,4.89
2023-01-28T19:19:46.326Z,4.89
2023-01-28T19:20:48.259Z,4.89
2023-01-28T19:21:50.109Z,4.90
2023-01-28T19:22:51.973Z,4.89
2023-01-28T19:23:53.815Z,4.86
2023-01-28T19:24:55.612Z,4.87
2023-01-28T19:25:57.459Z,4.88
2023-01-28T19:26:59.363Z,4.88
2023-01-28T19:28:01.188Z,4.85
2023-01-28T19:29:03.015Z,4.87
2023-01-28T19:30:04.949Z,4.89
2023-01-28T19:31:06.722Z,4.88
2023-01-28T19:32:09.260Z,4.90
2023-01-28T19:33:11.087Z,4.88
2023-01-28T19:34:12.922Z,4.90
2023-01-28T19:35:15.082Z,4.86
2023-01-28T19:36:17.163Z,4.84
2023-01-28T19:37:19.020Z,4.83
2023-01-28T19:38:20.962Z,4.82
2023-01-28T19:39:22.785Z,4.83
2023-01-28T19:40:24.700Z,4.84
2023-01-28T19:41:26.523Z,4.87
2023-01-28T19:42:28.411Z,4.89
2023-01-28T19:43:30.239Z,4.92
2023-01-28T19:44:32.082Z,4.95
2023-01-28T19:45:33.913Z,4.97
2023-01-28T19:46:35.818Z,4.97
2023-01-28T19:47:38.880Z,4.97
2023-01-28T19:48:40.716Z,4.98
2023-01-28T19:49:42.551Z,4.96
2023-01-28T19:50:44.402Z,4.95
2023-01-28T19:51:46.777Z,4.95
2023-01-28T19:52:50.634Z,4.95
2023-01-28T19:53:52.558Z,4.97
2023-01-28T19:54:54.357Z,4.97
2023-01-28T19:55:56.183Z,4.96
2023-01-28T19:56:57.967Z,4.93
2023-01-28T19:57:59.823Z,4.97
2023-01-28T19:59:01.640Z,5.00
2023-01-28T20:00:03.771Z,5.01
2023-01-28T20:01:06.124Z,5.03
2023-01-28T20:02:08.007Z,5.02
2023-01-28T20:03:09.864Z,5.02
2023-01-28T20:04:11.702Z,4.97
2023-01-28T20:05:13.756Z,4.95
2023-01-28T20:06:15.718Z,4.95
2023-01-28T20:07:17.556Z,4.99
2023-01-28T20:08:19.412Z,4.98
2023-01-28T20:09:21.245Z,4.97
2023-01-28T20:10:23.803Z,4.96
2023-01-28T20:11:25.630Z,4.96
2023-01-28T20:12:27.455Z,4.93
2023-01-28T20:13:29.332Z,4.92
2023-01-28T20:14:31.146Z,4.92
2023-01-28T20:15:33.014Z,4.93
2023-01-28T20:16:34.891Z,4.94
2023-01-28T20:17:36.754Z,4.97
2023-01-28T20:18:38.650Z,4.97
2023-01-28T20:19:40.460Z,4.93
2023-01-28T20:20:42.280Z,4.94
2023-01-28T20:21:44.128Z,4.93
2023-01-28T20:22:46.672Z,4.94
2023-01-28T20:23:48.550Z,4.95
2023-01-28T20:24:50.419Z,4.99
2023-01-28T20:25:52.230Z,5.03
2023-01-28T20:26:54.094Z,5.05
2023-01-28T20:27:55.868Z,5.09
2023-01-28T20:28:57.733Z,5.12
2023-01-28T20:29:59.534Z,5.12
2023-01-28T20:31:01.582Z,5.16
2023-01-28T20:32:16.257Z,5.17
2023-01-28T20:33:07.021Z,5.19
2023-01-28T20:34:08.873Z,5.22
2023-01-28T20:35:10.736Z,5.22
2023-01-28T20:36:12.868Z,5.22
2023-01-28T20:37:15.315Z,5.26
2023-01-28T20:38:17.121Z,5.25
2023-01-28T20:39:18.964Z,5.27
2023-01-28T20:40:20.832Z,5.30
2023-01-28T20:41:23.269Z,5.32
2023-01-28T20:42:25.063Z,5.37
2023-01-28T20:43:28.685Z,5.39
2023-01-28T20:44:30.582Z,5.39
2023-01-28T20:45:32.389Z,5.39
2023-01-28T20:46:34.222Z,5.39
2023-01-28T20:47:36.383Z,5.40
2023-01-28T20:48:38.182Z,5.41
2023-01-28T20:49:40.628Z,5.44
2023-01-28T20:50:43.048Z,5.46
2023-01-28T20:51:44.857Z,5.48
2023-01-28T20:52:46.672Z,5.50
2023-01-28T20:53:48.456Z,5.52
2023-01-28T20:54:50.278Z,5.51
2023-01-28T20:55:52.148Z,5.53
2023-01-28T20:56:54.083Z,5.54
2023-01-28T20:57:56.458Z,5.53
2023-01-28T20:58:58.263Z,5.48
2023-01-28T21:00:00.505Z,5.46
2023-01-28T21:01:02.312Z,5.45
2023-01-28T21:02:04.112Z,5.45
2023-01-28T21:03:05.918Z,5.46
2023-01-28T21:04:10.533Z,5.49
2023-01-28T21:05:11.404Z,5.55
2023-01-28T21:06:13.622Z,5.60
2023-01-28T21:07:15.426Z,5.63